sensor_id;sensor_type;location;lat;lon;timestamp;temperature;humidity
7360;DHT22;3720;48.274;7.796;2023-04-01T00:00:58;9.90;99.90
7360;DHT22;3720;48.274;7.796;2023-04-01T00:03:32;9.90;99.90
7360;DHT22;3720;48.274;7.796;2023-04-01T00:06:05;9.80;99.90
7360;DHT22;3720;48.274;7.796;2023-04-01T00:08:37;9.80;99.90
7360;DHT22;3720;48.274;7.796;2023-04-01T00:11:10;9.80;99.90
7360;DHT22;3720;48.274;7.796;2023-04-01T00:13:42;9.80;99.90
7360;DHT22;3720;48.274;7.796;2023-04-01T00:16:14;9.70;99.90
7360;DHT22;3720;48.274;7.796;2023-04-01T00:18:48;9.70;99.90
7360;DHT22;3720;48.274;7.796;2023-04-01T00:21:21;9.70;99.90
7360;DHT22;3720;48.274;7.796;2023-04-01T00:23:54;9.60;99.90
7360;DHT22;3720;48.274;7.796;2023-04-01T00:26:26;9.60;99.90
7360;DHT22;3720;48.274;7.796;2023-04-01T00:28:58;9.60;99.90
7360;DHT22;3720;48.274;7.796;2023-04-01T00:31:31;9.60;99.90
7360;DHT22;3720;48.274;7.796;2023-04-01T00:34:04;9.60;99.90
7360;DHT22;3720;48.274;7.796;2023-04-01T00:36:36;9.60;99.90
7360;DHT22;3720;48.274;7.796;2023-04-01T00:39:08;9.60;99.90
7360;DHT22;3720;48.274;7.796;2023-04-01T00:41:40;9.60;99.90
7360;DHT22;3720;48.274;7.796;2023-04-01T00:44:16;9.50;99.90
7360;DHT22;3720;48.274;7.796;2023-04-01T00:46:49;9.50;99.90
7360;DHT22;3720;48.274;7.796;2023-04-01T00:49:27;9.50;99.90
7360;DHT22;3720;48.274;7.796;2023-04-01T00:52:02;9.40;99.90
7360;DHT22;3720;48.274;7.796;2023-04-01T00:54:34;9.40;99.90
7360;DHT22;3720;48.274;7.796;2023-04-01T00:57:12;9.30;99.90
7360;DHT22;3720;48.274;7.796;2023-04-01T00:59:48;9.20;99.90
7360;DHT22;3720;48.274;7.796;2023-04-01T01:02:22;9.20;99.90
7360;DHT22;3720;48.274;7.796;2023-04-01T01:04:56;9.20;99.90
7360;DHT22;3720;48.274;7.796;2023-04-01T01:07:31;9.10;99.90
7360;DHT22;3720;48.274;7.796;2023-04-01T01:10:10;9.10;99.90
7360;DHT22;3720;48.274;7.796;2023-04-01T01:12:50;9.00;99.90
7360;DHT22;3720;48.274;7.796;2023-04-01T01:15:28;9.00;99.90
7360;DHT22;3720;48.274;7.796;2023-04-01T01:18:06;9.00;99.90
7360;DHT22;3720;48.274;7.796;2023-04-01T01:21:06;9.00;99.90
7360;DHT22;3720;48.274;7.796;2023-04-01T01:27:09;8.90;99.90
7360;DHT22;3720;48.274;7.796;2023-04-01T01:30:04;8.90;99.90
7360;DHT22;3720;48.274;7.796;2023-04-01T01:33:18;8.90;99.90
7360;DHT22;3720;48.274;7.796;2023-04-01T01:35:56;9.00;99.90
7360;DHT22;3720;48.274;7.796;2023-04-01T01:38:31;9.00;99.90
7360;DHT22;3720;48.274;7.796;2023-04-01T01:41:07;9.00;99.90
7360;DHT22;3720;48.274;7.796;2023-04-01T01:43:42;8.90;99.90
7360;DHT22;3720;48.274;7.796;2023-04-01T01:46:17;9.00;99.90
7360;DHT22;3720;48.274;7.796;2023-04-01T01:48:52;8.90;99.90
7360;DHT22;3720;48.274;7.796;2023-04-01T01:51:27;8.90;99.90
7360;DHT22;3720;48.274;7.796;2023-04-01T01:53:59;8.90;99.90
7360;DHT22;3720;48.274;7.796;2023-04-01T01:56:33;8.90;99.90
7360;DHT22;3720;48.274;7.796;2023-04-01T01:59:08;8.90;99.90
7360;DHT22;3720;48.274;7.796;2023-04-01T02:01:45;8.90;99.90
7360;DHT22;3720;48.274;7.796;2023-04-01T02:04:19;8.90;99.90
7360;DHT22;3720;48.274;7.796;2023-04-01T02:06:56;8.80;99.90
7360;DHT22;3720;48.274;7.796;2023-04-01T02:09:30;8.80;99.90
7360;DHT22;3720;48.274;7.796;2023-04-01T02:12:06;8.90;99.90
7360;DHT22;3720;48.274;7.796;2023-04-01T02:14:43;8.90;99.90
7360;DHT22;3720;48.274;7.796;2023-04-01T02:17:17;8.90;99.90
7360;DHT22;3720;48.274;7.796;2023-04-01T02:19:52;8.80;99.90
7360;DHT22;3720;48.274;7.796;2023-04-01T02:22:29;8.80;99.90
7360;DHT22;3720;48.274;7.796;2023-04-01T02:25:05;8.80;99.90
7360;DHT22;3720;48.274;7.796;2023-04-01T02:27:39;8.80;99.90
7360;DHT22;3720;48.274;7.796;2023-04-01T02:30:13;8.80;99.90
7360;DHT22;3720;48.274;7.796;2023-04-01T02:32:46;8.90;99.90
7360;DHT22;3720;48.274;7.796;2023-04-01T02:35:19;8.90;99.90
7360;DHT22;3720;48.274;7.796;2023-04-01T02:37:54;9.00;99.90
7360;DHT22;3720;48.274;7.796;2023-04-01T02:40:26;9.00;99.90
7360;DHT22;3720;48.274;7.796;2023-04-01T02:42:58;9.10;99.90
7360;DHT22;3720;48.274;7.796;2023-04-01T02:45:30;9.10;99.90
7360;DHT22;3720;48.274;7.796;2023-04-01T02:48:02;9.20;99.90
7360;DHT22;3720;48.274;7.796;2023-04-01T02:50:34;9.30;99.90
7360;DHT22;3720;48.274;7.796;2023-04-01T02:53:07;9.40;99.90
7360;DHT22;3720;48.274;7.796;2023-04-01T02:55:39;9.40;99.90
7360;DHT22;3720;48.274;7.796;2023-04-01T02:58:12;9.40;99.90
7360;DHT22;3720;48.274;7.796;2023-04-01T03:00:43;9.50;99.90
7360;DHT22;3720;48.274;7.796;2023-04-01T03:03:15;9.50;99.90
7360;DHT22;3720;48.274;7.796;2023-04-01T03:05:47;9.50;99.90
7360;DHT22;3720;48.274;7.796;2023-04-01T03:08:20;9.50;99.90
7360;DHT22;3720;48.274;7.796;2023-04-01T03:10:52;9.50;99.90
7360;DHT22;3720;48.274;7.796;2023-04-01T03:13:24;9.50;99.90
7360;DHT22;3720;48.274;7.796;2023-04-01T03:15:56;9.50;99.90
7360;DHT22;3720;48.274;7.796;2023-04-01T03:18:28;9.50;99.90
7360;DHT22;3720;48.274;7.796;2023-04-01T03:21:13;9.50;99.90
7360;DHT22;3720;48.274;7.796;2023-04-01T03:23:46;9.50;99.90
7360;DHT22;3720;48.274;7.796;2023-04-01T03:26:18;9.50;99.90
7360;DHT22;3720;48.274;7.796;2023-04-01T03:28:51;9.40;99.90
7360;DHT22;3720;48.274;7.796;2023-04-01T03:31:23;9.40;99.90
7360;DHT22;3720;48.274;7.796;2023-04-01T03:33:56;9.40;99.90
7360;DHT22;3720;48.274;7.796;2023-04-01T03:36:28;9.30;99.90
7360;DHT22;3720;48.274;7.796;2023-04-01T03:39:02;9.40;99.90
7360;DHT22;3720;48.274;7.796;2023-04-01T03:41:36;9.40;99.90
7360;DHT22;3720;48.274;7.796;2023-04-01T03:44:08;9.30;99.90
7360;DHT22;3720;48.274;7.796;2023-04-01T03:46:40;9.30;99.90
7360;DHT22;3720;48.274;7.796;2023-04-01T03:49:13;9.30;99.90
7360;DHT22;3720;48.274;7.796;2023-04-01T03:51:45;9.30;99.90
7360;DHT22;3720;48.274;7.796;2023-04-01T03:54:19;9.20;99.90
7360;DHT22;3720;48.274;7.796;2023-04-01T03:56:51;9.10;99.90
7360;DHT22;3720;48.274;7.796;2023-04-01T03:59:23;9.10;99.90
7360;DHT22;3720;48.274;7.796;2023-04-01T04:01:55;9.00;99.90
7360;DHT22;3720;48.274;7.796;2023-04-01T04:04:27;9.00;99.90
7360;DHT22;3720;48.274;7.796;2023-04-01T04:07:00;8.90;99.90
7360;DHT22;3720;48.274;7.796;2023-04-01T04:09:34;9.00;99.90
7360;DHT22;3720;48.274;7.796;2023-04-01T04:12:06;8.90;99.90
7360;DHT22;3720;48.274;7.796;2023-04-01T04:14:38;8.90;99.90
7360;DHT22;3720;48.274;7.796;2023-04-01T04:17:10;8.90;99.90
7360;DHT22;3720;48.274;7.796;2023-04-01T04:19:46;8.90;99.90
7360;DHT22;3720;48.274;7.796;2023-04-01T04:22:18;8.90;99.90
7360;DHT22;3720;48.274;7.796;2023-04-01T04:24:51;8.90;99.90
7360;DHT22;3720;48.274;7.796;2023-04-01T04:27:23;8.90;99.90
7360;DHT22;3720;48.274;7.796;2023-04-01T04:29:55;8.90;99.90
7360;DHT22;3720;48.274;7.796;2023-04-01T04:32:27;8.90;99.90
7360;DHT22;3720;48.274;7.796;2023-04-01T04:34:59;8.90;99.90
7360;DHT22;3720;48.274;7.796;2023-04-01T04:37:31;8.90;99.90
7360;DHT22;3720;48.274;7.796;2023-04-01T04:40:07;8.90;99.90
7360;DHT22;3720;48.274;7.796;2023-04-01T04:42:39;8.90;99.90
7360;DHT22;3720;48.274;7.796;2023-04-01T04:45:12;8.90;99.90
7360;DHT22;3720;48.274;7.796;2023-04-01T04:47:44;8.90;99.90
7360;DHT22;3720;48.274;7.796;2023-04-01T04:50:17;8.90;99.90
7360;DHT22;3720;48.274;7.796;2023-04-01T04:52:49;8.90;99.90
7360;DHT22;3720;48.274;7.796;2023-04-01T04:55:22;8.90;99.90
7360;DHT22;3720;48.274;7.796;2023-04-01T04:57:54;9.00;99.90
7360;DHT22;3720;48.274;7.796;2023-04-01T05:00:26;9.00;99.90
7360;DHT22;3720;48.274;7.796;2023-04-01T05:02:58;9.00;99.90
7360;DHT22;3720;48.274;7.796;2023-04-01T05:05:30;9.00;99.90
7360;DHT22;3720;48.274;7.796;2023-04-01T05:08:02;9.00;99.90
7360;DHT22;3720;48.274;7.796;2023-04-01T05:10:35;9.00;99.90
7360;DHT22;3720;48.274;7.796;2023-04-01T05:13:07;9.00;99.90
7360;DHT22;3720;48.274;7.796;2023-04-01T05:15:39;9.00;99.90
7360;DHT22;3720;48.274;7.796;2023-04-01T05:18:12;9.00;99.90
7360;DHT22;3720;48.274;7.796;2023-04-01T05:20:47;9.00;99.90
7360;DHT22;3720;48.274;7.796;2023-04-01T05:23:21;9.00;99.90
7360;DHT22;3720;48.274;7.796;2023-04-01T05:25:55;9.10;99.90
7360;DHT22;3720;48.274;7.796;2023-04-01T05:28:27;9.10;99.90
7360;DHT22;3720;48.274;7.796;2023-04-01T05:30:59;9.10;99.90
7360;DHT22;3720;48.274;7.796;2023-04-01T05:33:31;9.10;99.90
7360;DHT22;3720;48.274;7.796;2023-04-01T05:36:08;9.10;99.90
7360;DHT22;3720;48.274;7.796;2023-04-01T05:38:40;9.10;99.90
7360;DHT22;3720;48.274;7.796;2023-04-01T05:41:14;9.10;99.90
7360;DHT22;3720;48.274;7.796;2023-04-01T05:43:47;9.10;99.90
7360;DHT22;3720;48.274;7.796;2023-04-01T05:46:19;9.10;99.90
7360;DHT22;3720;48.274;7.796;2023-04-01T05:48:51;9.10;99.90
7360;DHT22;3720;48.274;7.796;2023-04-01T05:51:23;9.20;99.90
7360;DHT22;3720;48.274;7.796;2023-04-01T05:53:55;9.20;99.90
7360;DHT22;3720;48.274;7.796;2023-04-01T05:56:28;9.20;99.90
7360;DHT22;3720;48.274;7.796;2023-04-01T05:59:00;9.20;99.90
7360;DHT22;3720;48.274;7.796;2023-04-01T06:01:32;9.20;99.90
7360;DHT22;3720;48.274;7.796;2023-04-01T06:04:04;9.30;99.90
7360;DHT22;3720;48.274;7.796;2023-04-01T06:06:36;9.30;99.90
7360;DHT22;3720;48.274;7.796;2023-04-01T06:09:14;9.30;99.90
7360;DHT22;3720;48.274;7.796;2023-04-01T06:15:09;9.30;99.90
7360;DHT22;3720;48.274;7.796;2023-04-01T06:17:58;9.40;99.90
7360;DHT22;3720;48.274;7.796;2023-04-01T06:20:39;9.30;99.90
7360;DHT22;3720;48.274;7.796;2023-04-01T06:23:33;9.40;99.90
7360;DHT22;3720;48.274;7.796;2023-04-01T06:26:23;9.40;99.90
7360;DHT22;3720;48.274;7.796;2023-04-01T06:29:27;9.40;99.90
7360;DHT22;3720;48.274;7.796;2023-04-01T06:32:23;9.40;99.90
7360;DHT22;3720;48.274;7.796;2023-04-01T06:35:13;9.40;99.90
7360;DHT22;3720;48.274;7.796;2023-04-01T06:44:00;9.50;99.90
7360;DHT22;3720;48.274;7.796;2023-04-01T06:46:45;9.50;99.90
7360;DHT22;3720;48.274;7.796;2023-04-01T06:49:28;9.50;99.90
7360;DHT22;3720;48.274;7.796;2023-04-01T06:52:12;9.50;99.90
7360;DHT22;3720;48.274;7.796;2023-04-01T06:54:49;9.60;99.90
7360;DHT22;3720;48.274;7.796;2023-04-01T06:57:29;9.60;99.90
7360;DHT22;3720;48.274;7.796;2023-04-01T07:00:10;9.70;99.90
7360;DHT22;3720;48.274;7.796;2023-04-01T07:02:49;9.70;99.90
7360;DHT22;3720;48.274;7.796;2023-04-01T07:05:25;9.70;99.90
7360;DHT22;3720;48.274;7.796;2023-04-01T07:08:03;9.70;99.90
7360;DHT22;3720;48.274;7.796;2023-04-01T07:10:43;9.80;99.90
7360;DHT22;3720;48.274;7.796;2023-04-01T07:13:21;9.80;99.90
7360;DHT22;3720;48.274;7.796;2023-04-01T07:16:03;9.80;99.90
7360;DHT22;3720;48.274;7.796;2023-04-01T07:18:42;9.80;99.90
7360;DHT22;3720;48.274;7.796;2023-04-01T07:21:23;9.90;99.90
7360;DHT22;3720;48.274;7.796;2023-04-01T07:24:01;9.80;99.90
7360;DHT22;3720;48.274;7.796;2023-04-01T07:26:34;9.90;99.90
7360;DHT22;3720;48.274;7.796;2023-04-01T07:29:09;9.90;99.90
7360;DHT22;3720;48.274;7.796;2023-04-01T07:31:57;9.90;99.90
7360;DHT22;3720;48.274;7.796;2023-04-01T07:34:40;9.90;99.90
7360;DHT22;3720;48.274;7.796;2023-04-01T07:37:21;10.00;99.90
7360;DHT22;3720;48.274;7.796;2023-04-01T07:40:03;10.00;99.90
7360;DHT22;3720;48.274;7.796;2023-04-01T07:42:51;10.00;99.90
7360;DHT22;3720;48.274;7.796;2023-04-01T07:45:31;10.00;99.90
7360;DHT22;3720;48.274;7.796;2023-04-01T07:48:15;10.00;99.90
7360;DHT22;3720;48.274;7.796;2023-04-01T07:51:00;10.00;99.90
7360;DHT22;3720;48.274;7.796;2023-04-01T07:53:37;10.00;99.90
7360;DHT22;3720;48.274;7.796;2023-04-01T07:56:15;10.00;99.90
7360;DHT22;3720;48.274;7.796;2023-04-01T07:58:56;10.10;99.90
7360;DHT22;3720;48.274;7.796;2023-04-01T08:01:33;10.10;99.90
7360;DHT22;3720;48.274;7.796;2023-04-01T08:04:15;10.10;99.90
7360;DHT22;3720;48.274;7.796;2023-04-01T08:06:55;10.10;99.90
7360;DHT22;3720;48.274;7.796;2023-04-01T08:09:35;10.10;99.90
7360;DHT22;3720;48.274;7.796;2023-04-01T08:12:20;10.10;99.90
7360;DHT22;3720;48.274;7.796;2023-04-01T08:15:00;10.20;99.90
7360;DHT22;3720;48.274;7.796;2023-04-01T08:17:42;10.10;99.90
7360;DHT22;3720;48.274;7.796;2023-04-01T08:20:23;10.10;99.90
7360;DHT22;3720;48.274;7.796;2023-04-01T08:23:02;10.20;99.90
7360;DHT22;3720;48.274;7.796;2023-04-01T08:25:41;10.20;99.90
7360;DHT22;3720;48.274;7.796;2023-04-01T08:28:21;10.20;99.90
7360;DHT22;3720;48.274;7.796;2023-04-01T08:30:58;10.20;99.90
7360;DHT22;3720;48.274;7.796;2023-04-01T08:33:33;10.20;99.90
7360;DHT22;3720;48.274;7.796;2023-04-01T08:36:07;10.20;99.90
7360;DHT22;3720;48.274;7.796;2023-04-01T08:38:43;10.20;99.90
7360;DHT22;3720;48.274;7.796;2023-04-01T08:41:28;10.20;99.90
7360;DHT22;3720;48.274;7.796;2023-04-01T08:44:27;10.20;99.90
7360;DHT22;3720;48.274;7.796;2023-04-01T08:47:30;10.20;99.90
7360;DHT22;3720;48.274;7.796;2023-04-01T08:50:38;10.20;99.90
7360;DHT22;3720;48.274;7.796;2023-04-01T08:53:22;10.10;99.90
7360;DHT22;3720;48.274;7.796;2023-04-01T08:56:06;10.10;99.90
7360;DHT22;3720;48.274;7.796;2023-04-01T08:59:21;10.10;99.90
7360;DHT22;3720;48.274;7.796;2023-04-01T09:02:13;10.00;99.90
7360;DHT22;3720;48.274;7.796;2023-04-01T09:05:14;10.00;99.90
7360;DHT22;3720;48.274;7.796;2023-04-01T09:07:57;10.00;99.90
7360;DHT22;3720;48.274;7.796;2023-04-01T09:10:51;10.00;99.90
7360;DHT22;3720;48.274;7.796;2023-04-01T09:13:40;10.00;99.90
7360;DHT22;3720;48.274;7.796;2023-04-01T09:16:26;10.00;99.90
7360;DHT22;3720;48.274;7.796;2023-04-01T09:19:14;10.00;99.90
7360;DHT22;3720;48.274;7.796;2023-04-01T09:21:59;10.10;99.90
7360;DHT22;3720;48.274;7.796;2023-04-01T09:24:43;10.10;99.90
7360;DHT22;3720;48.274;7.796;2023-04-01T09:27:26;10.10;99.90
7360;DHT22;3720;48.274;7.796;2023-04-01T09:34:02;10.10;99.90
7360;DHT22;3720;48.274;7.796;2023-04-01T09:36:45;10.10;99.90
7360;DHT22;3720;48.274;7.796;2023-04-01T09:39:31;10.10;99.90
7360;DHT22;3720;48.274;7.796;2023-04-01T09:42:34;10.10;99.90
7360;DHT22;3720;48.274;7.796;2023-04-01T09:45:29;10.10;99.90
7360;DHT22;3720;48.274;7.796;2023-04-01T09:48:14;10.10;99.90
7360;DHT22;3720;48.274;7.796;2023-04-01T09:50:55;10.10;99.90
7360;DHT22;3720;48.274;7.796;2023-04-01T09:53:41;10.10;99.90
7360;DHT22;3720;48.274;7.796;2023-04-01T09:59:50;10.20;99.90
7360;DHT22;3720;48.274;7.796;2023-04-01T10:15:29;10.30;99.90
7360;DHT22;3720;48.274;7.796;2023-04-01T10:24:33;10.50;99.90
7360;DHT22;3720;48.274;7.796;2023-04-01T10:27:31;10.60;99.90
7360;DHT22;3720;48.274;7.796;2023-04-01T10:30:29;10.60;99.90
7360;DHT22;3720;48.274;7.796;2023-04-01T10:36:43;10.60;99.90
7360;DHT22;3720;48.274;7.796;2023-04-01T10:46:01;10.60;99.90
7360;DHT22;3720;48.274;7.796;2023-04-01T10:52:12;10.60;99.90
7360;DHT22;3720;48.274;7.796;2023-04-01T10:55:06;10.60;99.90
7360;DHT22;3720;48.274;7.796;2023-04-01T10:58:05;10.50;99.90
7360;DHT22;3720;48.274;7.796;2023-04-01T11:00:58;10.50;99.90
7360;DHT22;3720;48.274;7.796;2023-04-01T11:03:54;10.50;99.90
7360;DHT22;3720;48.274;7.796;2023-04-01T11:10:22;10.50;99.90
7360;DHT22;3720;48.274;7.796;2023-04-01T11:19:35;10.50;99.90
7360;DHT22;3720;48.274;7.796;2023-04-01T11:22:29;10.50;99.90
7360;DHT22;3720;48.274;7.796;2023-04-01T11:25:46;10.50;99.90
7360;DHT22;3720;48.274;7.796;2023-04-01T11:28:38;10.60;99.90
7360;DHT22;3720;48.274;7.796;2023-04-01T11:31:26;10.60;99.90
7360;DHT22;3720;48.274;7.796;2023-04-01T11:34:09;10.60;99.90
7360;DHT22;3720;48.274;7.796;2023-04-01T11:36:51;10.60;99.90
7360;DHT22;3720;48.274;7.796;2023-04-01T11:39:33;10.70;99.90
7360;DHT22;3720;48.274;7.796;2023-04-01T11:42:17;10.70;99.90
7360;DHT22;3720;48.274;7.796;2023-04-01T11:44:57;10.70;99.90
7360;DHT22;3720;48.274;7.796;2023-04-01T11:47:52;10.90;99.90
7360;DHT22;3720;48.274;7.796;2023-04-01T11:50:39;11.00;99.90
7360;DHT22;3720;48.274;7.796;2023-04-01T11:53:26;11.00;99.90
7360;DHT22;3720;48.274;7.796;2023-04-01T11:56:11;11.00;99.90
7360;DHT22;3720;48.274;7.796;2023-04-01T11:59:04;11.10;99.90
7360;DHT22;3720;48.274;7.796;2023-04-01T12:01:44;11.20;99.90
7360;DHT22;3720;48.274;7.796;2023-04-01T12:04:36;11.20;99.90
7360;DHT22;3720;48.274;7.796;2023-04-01T12:07:17;11.30;99.90
7360;DHT22;3720;48.274;7.796;2023-04-01T12:10:01;11.30;99.90
7360;DHT22;3720;48.274;7.796;2023-04-01T12:12:38;11.30;99.90
7360;DHT22;3720;48.274;7.796;2023-04-01T12:15:22;11.30;99.90
7360;DHT22;3720;48.274;7.796;2023-04-01T12:18:03;11.30;99.90
7360;DHT22;3720;48.274;7.796;2023-04-01T12:20:48;11.30;99.90
7360;DHT22;3720;48.274;7.796;2023-04-01T12:23:33;11.30;99.90
7360;DHT22;3720;48.274;7.796;2023-04-01T12:26:23;11.30;99.90
7360;DHT22;3720;48.274;7.796;2023-04-01T12:29:09;11.30;99.90
7360;DHT22;3720;48.274;7.796;2023-04-01T12:31:54;11.20;99.90
7360;DHT22;3720;48.274;7.796;2023-04-01T12:34:52;11.20;99.90
7360;DHT22;3720;48.274;7.796;2023-04-01T12:37:36;11.30;99.90
7360;DHT22;3720;48.274;7.796;2023-04-01T12:40:24;11.40;99.90
7360;DHT22;3720;48.274;7.796;2023-04-01T12:43:18;11.30;99.90
7360;DHT22;3720;48.274;7.796;2023-04-01T12:45:57;11.40;99.90
7360;DHT22;3720;48.274;7.796;2023-04-01T12:49:04;11.40;99.90
7360;DHT22;3720;48.274;7.796;2023-04-01T12:52:01;11.40;99.90
7360;DHT22;3720;48.274;7.796;2023-04-01T13:04:33;11.60;99.90
7360;DHT22;3720;48.274;7.796;2023-04-01T13:07:28;11.60;99.90
7360;DHT22;3720;48.274;7.796;2023-04-01T13:10:08;11.70;99.90
7360;DHT22;3720;48.274;7.796;2023-04-01T13:15:47;11.70;99.90
7360;DHT22;3720;48.274;7.796;2023-04-01T13:18:30;11.90;99.90
7360;DHT22;3720;48.274;7.796;2023-04-01T13:21:10;11.90;99.90
7360;DHT22;3720;48.274;7.796;2023-04-01T13:23:55;12.00;99.90
7360;DHT22;3720;48.274;7.796;2023-04-01T13:26:37;12.10;99.90
7360;DHT22;3720;48.274;7.796;2023-04-01T13:29:15;12.10;99.90
7360;DHT22;3720;48.274;7.796;2023-04-01T13:31:57;12.10;99.90
7360;DHT22;3720;48.274;7.796;2023-04-01T13:34:41;12.00;99.90
7360;DHT22;3720;48.274;7.796;2023-04-01T13:37:31;12.10;99.90
7360;DHT22;3720;48.274;7.796;2023-04-01T13:40:26;12.00;99.90
7360;DHT22;3720;48.274;7.796;2023-04-01T13:43:02;12.00;99.90
7360;DHT22;3720;48.274;7.796;2023-04-01T13:45:38;12.00;99.90
7360;DHT22;3720;48.274;7.796;2023-04-01T13:48:29;11.90;99.90
7360;DHT22;3720;48.274;7.796;2023-04-01T13:54:21;11.80;99.90
7360;DHT22;3720;48.274;7.796;2023-04-01T13:57:06;11.80;99.90
7360;DHT22;3720;48.274;7.796;2023-04-01T13:59:58;11.80;99.90
7360;DHT22;3720;48.274;7.796;2023-04-01T14:02:53;11.80;99.90
7360;DHT22;3720;48.274;7.796;2023-04-01T14:05:50;11.80;99.90
7360;DHT22;3720;48.274;7.796;2023-04-01T14:08:42;11.80;99.90
7360;DHT22;3720;48.274;7.796;2023-04-01T14:11:25;11.80;99.90
7360;DHT22;3720;48.274;7.796;2023-04-01T14:14:04;11.70;99.90
7360;DHT22;3720;48.274;7.796;2023-04-01T14:16:59;11.70;99.90
7360;DHT22;3720;48.274;7.796;2023-04-01T14:19:56;11.70;99.90
7360;DHT22;3720;48.274;7.796;2023-04-01T14:22:38;11.80;99.90
7360;DHT22;3720;48.274;7.796;2023-04-01T14:25:38;11.80;99.90
7360;DHT22;3720;48.274;7.796;2023-04-01T14:28:21;11.80;99.90
7360;DHT22;3720;48.274;7.796;2023-04-01T14:31:13;11.80;99.90
7360;DHT22;3720;48.274;7.796;2023-04-01T14:33:54;12.00;99.90
7360;DHT22;3720;48.274;7.796;2023-04-01T14:36:45;11.90;99.90
7360;DHT22;3720;48.274;7.796;2023-04-01T14:39:43;12.00;99.90
7360;DHT22;3720;48.274;7.796;2023-04-01T14:42:24;12.10;99.90
7360;DHT22;3720;48.274;7.796;2023-04-01T14:48:17;12.30;99.90
7360;DHT22;3720;48.274;7.796;2023-04-01T14:50:55;12.30;99.90
7360;DHT22;3720;48.274;7.796;2023-04-01T14:53:31;12.50;99.90
7360;DHT22;3720;48.274;7.796;2023-04-01T14:56:06;12.50;99.90
7360;DHT22;3720;48.274;7.796;2023-04-01T14:58:43;12.50;99.90
7360;DHT22;3720;48.274;7.796;2023-04-01T15:01:24;12.60;99.90
7360;DHT22;3720;48.274;7.796;2023-04-01T15:04:05;12.60;99.90
7360;DHT22;3720;48.274;7.796;2023-04-01T15:06:53;12.60;99.90
7360;DHT22;3720;48.274;7.796;2023-04-01T15:09:33;12.60;99.90
7360;DHT22;3720;48.274;7.796;2023-04-01T15:12:18;12.60;99.90
7360;DHT22;3720;48.274;7.796;2023-04-01T15:15:10;12.60;99.90
7360;DHT22;3720;48.274;7.796;2023-04-01T15:17:53;12.60;99.90
7360;DHT22;3720;48.274;7.796;2023-04-01T15:20:59;12.60;99.90
7360;DHT22;3720;48.274;7.796;2023-04-01T15:23:43;12.50;99.90
7360;DHT22;3720;48.274;7.796;2023-04-01T15:26:32;12.50;99.90
7360;DHT22;3720;48.274;7.796;2023-04-01T15:29:28;12.50;99.90
7360;DHT22;3720;48.274;7.796;2023-04-01T15:32:16;12.60;99.90
7360;DHT22;3720;48.274;7.796;2023-04-01T15:34:55;12.60;99.90
7360;DHT22;3720;48.274;7.796;2023-04-01T15:37:36;12.60;99.90
7360;DHT22;3720;48.274;7.796;2023-04-01T15:40:19;12.50;99.90
7360;DHT22;3720;48.274;7.796;2023-04-01T15:43:02;12.60;99.90
7360;DHT22;3720;48.274;7.796;2023-04-01T15:45:45;12.60;99.90
7360;DHT22;3720;48.274;7.796;2023-04-01T15:48:33;12.60;99.90
7360;DHT22;3720;48.274;7.796;2023-04-01T15:51:15;12.60;99.90
7360;DHT22;3720;48.274;7.796;2023-04-01T15:56:54;12.60;99.90
7360;DHT22;3720;48.274;7.796;2023-04-01T15:59:47;12.50;99.90
7360;DHT22;3720;48.274;7.796;2023-04-01T16:02:30;12.50;99.90
7360;DHT22;3720;48.274;7.796;2023-04-01T16:05:07;12.40;99.90
7360;DHT22;3720;48.274;7.796;2023-04-01T16:07:58;12.20;99.90
7360;DHT22;3720;48.274;7.796;2023-04-01T16:11:04;12.10;99.90
7360;DHT22;3720;48.274;7.796;2023-04-01T16:13:46;12.10;99.90
7360;DHT22;3720;48.274;7.796;2023-04-01T16:16:30;12.00;99.90
7360;DHT22;3720;48.274;7.796;2023-04-01T16:22:02;11.80;99.90
7360;DHT22;3720;48.274;7.796;2023-04-01T16:24:41;11.60;99.90
7360;DHT22;3720;48.274;7.796;2023-04-01T16:27:19;11.40;99.90
7360;DHT22;3720;48.274;7.796;2023-04-01T16:30:00;11.40;99.90
7360;DHT22;3720;48.274;7.796;2023-04-01T16:32:44;11.30;99.90
7360;DHT22;3720;48.274;7.796;2023-04-01T16:35:30;11.30;99.90
7360;DHT22;3720;48.274;7.796;2023-04-01T16:38:13;11.20;99.90
7360;DHT22;3720;48.274;7.796;2023-04-01T16:40:58;11.30;99.90
7360;DHT22;3720;48.274;7.796;2023-04-01T16:43:40;11.30;99.90
7360;DHT22;3720;48.274;7.796;2023-04-01T16:46:33;11.20;99.90
7360;DHT22;3720;48.274;7.796;2023-04-01T16:49:27;11.20;99.90
7360;DHT22;3720;48.274;7.796;2023-04-01T16:52:17;11.20;99.90
7360;DHT22;3720;48.274;7.796;2023-04-01T16:55:07;11.20;99.90
7360;DHT22;3720;48.274;7.796;2023-04-01T16:57:49;11.20;99.90
7360;DHT22;3720;48.274;7.796;2023-04-01T17:00:25;11.20;99.90
7360;DHT22;3720;48.274;7.796;2023-04-01T17:03:04;11.20;99.90
7360;DHT22;3720;48.274;7.796;2023-04-01T17:05:50;11.20;99.90
7360;DHT22;3720;48.274;7.796;2023-04-01T17:08:34;11.20;99.90
7360;DHT22;3720;48.274;7.796;2023-04-01T17:11:14;11.20;99.90
7360;DHT22;3720;48.274;7.796;2023-04-01T17:13:54;11.30;99.90
7360;DHT22;3720;48.274;7.796;2023-04-01T17:16:43;11.30;99.90
7360;DHT22;3720;48.274;7.796;2023-04-01T17:19:27;11.30;99.90
7360;DHT22;3720;48.274;7.796;2023-04-01T17:22:07;11.40;99.90
7360;DHT22;3720;48.274;7.796;2023-04-01T17:24:54;11.40;99.90
7360;DHT22;3720;48.274;7.796;2023-04-01T17:27:40;11.40;99.90
7360;DHT22;3720;48.274;7.796;2023-04-01T17:30:26;11.50;99.90
7360;DHT22;3720;48.274;7.796;2023-04-01T17:33:05;11.60;99.90
7360;DHT22;3720;48.274;7.796;2023-04-01T17:35:40;11.60;99.90
7360;DHT22;3720;48.274;7.796;2023-04-01T17:38:20;11.60;99.90
7360;DHT22;3720;48.274;7.796;2023-04-01T17:41:02;11.60;99.90
7360;DHT22;3720;48.274;7.796;2023-04-01T17:43:41;11.50;99.90
7360;DHT22;3720;48.274;7.796;2023-04-01T17:46:29;11.50;99.90
7360;DHT22;3720;48.274;7.796;2023-04-01T17:49:10;11.40;99.90
7360;DHT22;3720;48.274;7.796;2023-04-01T17:51:53;11.40;99.90
7360;DHT22;3720;48.274;7.796;2023-04-01T17:54:33;11.40;99.90
7360;DHT22;3720;48.274;7.796;2023-04-01T17:57:27;11.40;99.90
7360;DHT22;3720;48.274;7.796;2023-04-01T18:00:06;11.30;99.90
7360;DHT22;3720;48.274;7.796;2023-04-01T18:02:54;11.20;99.90
7360;DHT22;3720;48.274;7.796;2023-04-01T18:05:36;11.30;99.90
7360;DHT22;3720;48.274;7.796;2023-04-01T18:08:16;11.20;99.90
7360;DHT22;3720;48.274;7.796;2023-04-01T18:10:56;11.20;99.90
7360;DHT22;3720;48.274;7.796;2023-04-01T18:13:49;11.10;99.90
7360;DHT22;3720;48.274;7.796;2023-04-01T18:16:32;11.10;99.90
7360;DHT22;3720;48.274;7.796;2023-04-01T18:19:14;11.00;99.90
7360;DHT22;3720;48.274;7.796;2023-04-01T18:21:50;10.90;99.90
7360;DHT22;3720;48.274;7.796;2023-04-01T18:24:28;10.80;99.90
7360;DHT22;3720;48.274;7.796;2023-04-01T18:27:01;10.80;99.90
7360;DHT22;3720;48.274;7.796;2023-04-01T18:29:48;10.80;99.90
7360;DHT22;3720;48.274;7.796;2023-04-01T18:32:30;10.80;99.90
7360;DHT22;3720;48.274;7.796;2023-04-01T18:35:17;10.80;99.90
7360;DHT22;3720;48.274;7.796;2023-04-01T18:37:55;10.70;99.90
7360;DHT22;3720;48.274;7.796;2023-04-01T18:40:33;10.80;99.90
7360;DHT22;3720;48.274;7.796;2023-04-01T18:43:12;10.90;99.90
7360;DHT22;3720;48.274;7.796;2023-04-01T18:45:51;10.90;99.90
7360;DHT22;3720;48.274;7.796;2023-04-01T18:48:43;10.80;99.90
7360;DHT22;3720;48.274;7.796;2023-04-01T18:51:21;10.80;99.90
7360;DHT22;3720;48.274;7.796;2023-04-01T18:53:57;10.80;99.90
7360;DHT22;3720;48.274;7.796;2023-04-01T18:56:32;10.70;99.90
7360;DHT22;3720;48.274;7.796;2023-04-01T18:59:10;10.70;99.90
7360;DHT22;3720;48.274;7.796;2023-04-01T19:01:52;10.80;99.90
7360;DHT22;3720;48.274;7.796;2023-04-01T19:04:32;10.80;99.90
7360;DHT22;3720;48.274;7.796;2023-04-01T19:07:45;10.70;99.90